createdAt,value
2019-01-25T00:02:39.852Z,29.40
2019-01-25T00:05:48.757Z,25.57
2019-01-25T00:11:52.598Z,26.83
2019-01-25T00:14:40.545Z,24.50
2019-01-25T00:19:58.632Z,27.17
2019-01-25T00:31:25.141Z,24.27
2019-01-25T00:34:13.004Z,23.77
2019-01-25T00:37:00.833Z,22.70
2019-01-25T00:39:48.712Z,24.00
2019-01-25T00:42:36.690Z,28.40
2019-01-25T00:45:45.151Z,27.20
2019-01-25T00:48:33.005Z,25.00
2019-01-25T00:51:21.063Z,23.37
2019-01-25T00:54:08.947Z,25.03
2019-01-25T00:56:37.654Z,26.37
2019-01-25T01:02:13.201Z,26.17
2019-01-25T01:05:00.975Z,23.73
2019-01-25T01:10:28.165Z,22.87
2019-01-25T01:13:16.055Z,24.90
2019-01-25T01:16:03.933Z,23.10
2019-01-25T01:18:51.826Z,26.23
2019-01-25T01:21:20.516Z,25.40
2019-01-25T01:24:08.375Z,25.90
2019-01-25T01:26:56.218Z,26.93
2019-01-25T01:29:44.120Z,28.43
2019-01-25T01:32:32.040Z,26.00
2019-01-25T01:35:20.029Z,27.50
2019-01-25T01:38:28.488Z,25.93
2019-01-25T01:41:16.398Z,24.23
2019-01-25T01:44:04.290Z,28.27
2019-01-25T01:46:52.149Z,24.43
2019-01-25T01:49:40.037Z,28.90
2019-01-25T01:52:27.919Z,25.83
2019-01-25T01:55:15.754Z,22.30
2019-01-25T02:00:58.224Z,25.47
2019-01-25T02:03:46.103Z,26.80
2019-01-25T02:06:33.947Z,28.23
2019-01-25T02:12:01.006Z,28.37
2019-01-25T02:14:48.797Z,29.57
2019-01-25T02:17:17.461Z,26.77
2019-01-25T02:19:46.130Z,29.83
2019-01-25T02:22:14.748Z,26.57
2019-01-25T02:24:43.268Z,27.40
2019-01-25T02:27:11.887Z,28.07
2019-01-25T02:29:40.404Z,27.13
2019-01-25T02:32:08.956Z,28.03
2019-01-25T02:34:37.471Z,28.00
2019-01-25T02:37:06.098Z,29.10
2019-01-25T02:39:34.787Z,24.93
2019-01-25T02:42:03.435Z,26.10
2019-01-25T02:44:32.082Z,26.27
2019-01-25T02:47:00.767Z,24.13
2019-01-25T02:49:29.451Z,25.83
2019-01-25T02:51:58.127Z,23.97
2019-01-25T02:54:26.813Z,26.20
2019-01-25T02:56:55.793Z,25.33
2019-01-25T02:59:24.487Z,28.43
2019-01-25T03:01:53.139Z,24.50
2019-01-25T03:04:21.816Z,26.30
2019-01-25T03:06:50.807Z,23.97
2019-01-25T03:09:19.493Z,25.47
2019-01-25T03:11:48.173Z,23.03
2019-01-25T03:14:16.855Z,24.43
2019-01-25T03:16:45.559Z,27.87
2019-01-25T03:19:14.184Z,24.50
2019-01-25T03:21:42.835Z,24.67
2019-01-25T03:24:11.515Z,25.87
2019-01-25T03:26:40.194Z,22.97
2019-01-25T03:29:08.886Z,24.57
2019-01-25T03:31:38.053Z,23.70
2019-01-25T03:47:00.073Z,24.70
2019-01-25T03:52:21.842Z,26.13
2019-01-25T03:55:09.826Z,23.67
2019-01-25T03:57:57.746Z,23.07
2019-01-25T04:01:06.246Z,20.63
2019-01-25T04:06:41.984Z,25.10
2019-01-25T04:09:31.387Z,25.13
2019-01-25T04:12:00.113Z,25.73
2019-01-25T04:14:28.888Z,23.63
2019-01-25T04:16:57.679Z,23.73
2019-01-25T04:19:26.407Z,21.17
2019-01-25T04:22:14.390Z,26.27
2019-01-25T04:25:02.718Z,25.07
2019-01-25T04:27:52.245Z,22.60
2019-01-25T04:38:42.711Z,23.60
2019-01-25T04:41:12.022Z,24.27
2019-01-25T04:44:00.990Z,23.47
2019-01-25T04:46:29.737Z,22.87
2019-01-25T04:49:19.028Z,23.27
2019-01-25T04:55:02.038Z,23.30
2019-01-25T04:57:50.014Z,22.87
2019-01-25T05:00:58.575Z,22.30
2019-01-25T05:03:27.339Z,23.37
2019-01-25T05:09:10.453Z,23.30
2019-01-25T05:11:39.122Z,25.13
2019-01-25T05:14:27.011Z,23.33
2019-01-25T05:17:14.908Z,23.77
2019-01-25T05:20:02.889Z,25.50
2019-01-25T05:25:40.078Z,29.33
2019-01-25T05:28:48.616Z,26.30
2019-01-25T05:31:17.316Z,24.80
2019-01-25T05:34:25.837Z,28.03
2019-01-25T05:37:13.700Z,22.03
2019-01-25T05:40:01.759Z,22.37
2019-01-25T05:42:49.678Z,24.20
2019-01-25T05:45:58.148Z,22.67
2019-01-25T05:49:06.599Z,25.00
2019-01-25T05:51:54.441Z,25.83
2019-01-25T05:54:42.475Z,23.23
2019-01-25T06:08:07.754Z,24.30
2019-01-25T06:13:39.354Z,23.03
2019-01-25T06:21:49.066Z,25.37
2019-01-25T06:24:36.906Z,26.23
2019-01-25T06:27:45.686Z,23.83
2019-01-25T06:30:33.675Z,22.70
2019-01-25T06:33:02.852Z,23.30
2019-01-25T06:35:52.342Z,21.43
2019-01-25T06:39:00.840Z,22.43
2019-01-25T06:41:48.778Z,23.60
2019-01-25T06:44:36.903Z,25.50
2019-01-25T06:49:53.269Z,23.53
2019-01-25T06:52:21.992Z,25.87
2019-01-25T06:55:09.919Z,26.27
2019-01-25T06:57:57.757Z,22.50
2019-01-25T07:03:40.725Z,24.50
2019-01-25T07:06:28.654Z,24.73
2019-01-25T07:09:16.727Z,24.70
2019-01-25T07:12:04.733Z,23.43
2019-01-25T07:14:52.689Z,22.50
2019-01-25T07:20:50.411Z,23.97
2019-01-25T07:26:12.697Z,22.67
2019-01-25T07:29:00.543Z,22.47
2019-01-25T07:37:29.448Z,26.30
2019-01-25T07:42:52.744Z,25.57
2019-01-25T07:56:11.498Z,26.67
2019-01-25T07:58:59.486Z,25.17
2019-01-25T08:04:22.250Z,24.03
2019-01-25T08:07:32.365Z,27.37
2019-01-25T08:10:20.461Z,29.03
2019-01-25T08:13:08.500Z,28.13
2019-01-25T08:15:56.415Z,25.63
2019-01-25T08:18:44.379Z,22.03
2019-01-25T08:24:19.916Z,25.33
2019-01-25T08:29:28.405Z,22.27
2019-01-25T08:35:05.022Z,21.90
2019-01-25T08:37:52.907Z,23.90
2019-01-25T08:41:01.357Z,24.13
2019-01-25T08:43:30.077Z,24.67
2019-01-25T08:45:58.755Z,22.17
2019-01-25T08:48:46.619Z,24.77
2019-01-25T08:54:22.244Z,23.70
2019-01-25T08:57:10.225Z,22.70
2019-01-25T08:59:58.166Z,20.27
2019-01-25T09:02:26.914Z,22.17
2019-01-25T09:04:55.634Z,25.53
2019-01-25T09:07:43.431Z,25.77
2019-01-25T09:10:51.938Z,24.23
2019-01-25T09:13:39.929Z,20.63
2019-01-25T09:19:01.967Z,19.97
2019-01-25T09:21:30.629Z,22.63
2019-01-25T09:24:18.525Z,23.37
2019-01-25T09:27:06.454Z,23.07
2019-01-25T09:29:54.301Z,18.17
2019-01-25T09:32:43.748Z,20.60
2019-01-25T09:35:52.475Z,24.10
2019-01-25T09:38:40.309Z,22.03
2019-01-25T09:43:43.013Z,21.20
2019-01-25T09:46:11.756Z,23.23
2019-01-25T09:48:59.608Z,23.93
2019-01-25T09:51:47.466Z,21.80
2019-01-25T09:54:35.493Z,25.17
2019-01-25T10:00:52.121Z,23.10
2019-01-25T10:03:40.095Z,23.07
2019-01-25T10:06:27.895Z,20.77
2019-01-25T10:09:15.910Z,21.00
2019-01-25T10:12:03.869Z,21.63
2019-01-25T10:14:51.866Z,22.37
2019-01-25T10:19:54.786Z,21.43
2019-01-25T10:22:42.771Z,21.40
2019-01-25T10:25:51.267Z,21.80
2019-01-25T10:28:39.072Z,17.60
2019-01-25T10:33:41.997Z,19.17
2019-01-25T10:41:52.081Z,18.97
2019-01-25T10:44:20.873Z,19.43
2019-01-25T10:47:08.808Z,18.67
2019-01-25T10:49:56.661Z,19.73
2019-01-25T10:55:44.390Z,19.10
2019-01-25T10:58:52.910Z,20.07
2019-01-25T11:04:11.610Z,19.40
2019-01-25T11:06:39.933Z,18.73
2019-01-25T11:09:48.430Z,18.87
2019-01-25T11:12:36.439Z,17.57
2019-01-25T11:15:44.927Z,19.23
2019-01-25T11:21:07.578Z,21.10
2019-01-25T11:23:55.489Z,21.47
2019-01-25T11:26:43.462Z,18.50
2019-01-25T11:29:12.165Z,20.17
2019-01-25T11:32:00.153Z,20.37
2019-01-25T11:37:16.518Z,19.33
2019-01-25T11:40:04.448Z,19.73
2019-01-25T11:42:53.720Z,19.60
2019-01-25T11:45:22.690Z,18.43
2019-01-25T11:47:51.498Z,17.53
2019-01-25T11:50:59.998Z,18.23
2019-01-25T11:56:02.923Z,18.43
2019-01-25T12:01:45.851Z,18.83
2019-01-25T12:10:01.212Z,17.57
2019-01-25T12:12:49.203Z,21.53
2019-01-25T12:15:57.651Z,17.40
2019-01-25T12:18:26.496Z,16.67
2019-01-25T12:21:14.458Z,17.67
2019-01-25T12:24:02.384Z,18.80
2019-01-25T12:26:50.352Z,17.73
2019-01-25T12:29:38.308Z,19.60
2019-01-25T12:32:06.977Z,18.00
2019-01-25T12:34:54.927Z,17.70
2019-01-25T12:40:30.553Z,19.03
2019-01-25T12:45:50.236Z,18.77
2019-01-25T12:48:36.439Z,15.90
2019-01-25T12:51:44.942Z,17.23
2019-01-25T12:54:13.690Z,18.03
2019-01-25T12:57:01.650Z,18.63
2019-01-25T12:59:49.580Z,16.60
2019-01-25T13:02:37.661Z,19.40
2019-01-25T13:05:46.112Z,16.00
2019-01-25T13:08:34.067Z,15.00
2019-01-25T13:11:21.866Z,15.97
2019-01-25T13:17:03.455Z,17.30
2019-01-25T13:24:53.699Z,18.17
2019-01-25T13:29:56.785Z,14.97
2019-01-25T13:32:25.574Z,16.47
2019-01-25T13:34:54.426Z,16.97
2019-01-25T13:42:32.880Z,17.20
2019-01-25T13:45:20.858Z,17.03
2019-01-25T13:50:57.705Z,16.83
2019-01-25T13:56:33.143Z,18.40
2019-01-25T14:05:02.281Z,19.40
2019-01-25T14:07:50.282Z,18.87
2019-01-25T14:10:58.771Z,18.77
2019-01-25T14:13:47.140Z,18.27
2019-01-25T14:16:36.214Z,17.30
2019-01-25T14:19:44.711Z,16.50
2019-01-25T14:22:32.558Z,16.87
2019-01-25T14:25:20.350Z,16.40
2019-01-25T14:30:49.307Z,17.30
2019-01-25T14:33:37.136Z,18.10
2019-01-25T14:36:25.169Z,17.67
2019-01-25T14:38:53.995Z,17.20
2019-01-25T14:41:41.913Z,19.27
2019-01-25T14:44:10.640Z,16.17
2019-01-25T14:52:26.075Z,19.40
2019-01-25T14:55:14.048Z,17.23
2019-01-25T15:02:51.673Z,19.57
2019-01-25T15:06:00.121Z,17.73
2019-01-25T15:08:47.948Z,17.00
2019-01-25T15:11:35.889Z,18.50
2019-01-25T15:14:44.380Z,18.13
2019-01-25T15:17:32.311Z,19.50
2019-01-25T15:20:01.105Z,20.53
2019-01-25T15:22:49.087Z,21.53
2019-01-25T15:25:17.769Z,18.27
2019-01-25T15:27:46.483Z,19.60
2019-01-25T15:30:54.979Z,18.67
2019-01-25T15:33:43.001Z,20.67
2019-01-25T15:38:59.386Z,18.73
2019-01-25T15:42:07.879Z,18.57
2019-01-25T15:44:55.812Z,20.67
2019-01-25T15:55:48.171Z,20.07
2019-01-25T15:58:36.123Z,18.20
2019-01-25T16:03:39.468Z,19.10
2019-01-25T16:06:08.152Z,20.23
2019-01-25T16:08:56.104Z,18.27
2019-01-25T16:11:44.143Z,20.27
2019-01-25T16:17:00.805Z,20.77
2019-01-25T16:19:48.637Z,19.10
2019-01-25T16:22:36.473Z,22.17
2019-01-25T16:25:45.029Z,20.47
2019-01-25T16:28:33.031Z,19.33
2019-01-25T16:31:21.035Z,23.40
2019-01-25T16:34:09.013Z,20.70
2019-01-25T16:36:56.874Z,22.17
2019-01-25T16:39:44.730Z,21.57
2019-01-25T16:42:32.706Z,19.23
2019-01-25T16:45:20.725Z,18.40
2019-01-25T16:48:08.651Z,18.70
2019-01-25T16:51:17.159Z,21.03
2019-01-25T16:54:05.063Z,21.27
2019-01-25T17:02:01.642Z,20.23
2019-01-25T17:04:49.583Z,19.13
2019-01-25T17:10:51.691Z,19.87
2019-01-25T17:13:39.541Z,18.30
2019-01-25T17:24:16.767Z,17.13
2019-01-25T17:32:27.275Z,16.47
2019-01-25T17:35:15.247Z,12.57
2019-01-25T17:38:03.050Z,15.30
2019-01-25T17:43:25.042Z,15.03
2019-01-25T17:59:04.299Z,15.67
2019-01-25T18:01:52.270Z,12.63
2019-01-25T18:04:40.185Z,14.60
2019-01-25T18:07:28.023Z,14.17
2019-01-25T18:12:49.987Z,13.13
2019-01-25T18:15:58.433Z,14.63
2019-01-25T18:18:27.158Z,15.33
2019-01-25T18:23:43.583Z,13.97
2019-01-25T18:26:31.632Z,13.37
2019-01-25T18:34:41.476Z,13.03
2019-01-25T18:40:03.965Z,14.20
2019-01-25T18:42:51.914Z,12.83
2019-01-25T18:48:48.129Z,14.57
2019-01-25T18:54:44.206Z,11.93
2019-01-25T18:57:32.461Z,13.13
2019-01-25T19:00:21.268Z,12.03
2019-01-25T19:03:09.619Z,13.33
2019-01-25T19:08:45.241Z,12.13
2019-01-25T19:16:41.747Z,13.80
2019-01-25T19:22:37.857Z,11.97
2019-01-25T19:25:27.305Z,11.60
2019-01-25T19:28:15.294Z,10.00
2019-01-25T19:31:23.876Z,12.70
2019-01-25T19:34:11.807Z,10.93
2019-01-25T19:36:59.778Z,10.80
2019-01-25T19:39:47.749Z,11.87
2019-01-25T19:42:16.442Z,10.47
2019-01-25T19:45:11.699Z,10.17
2019-01-25T19:47:34.797Z,12.50
2019-01-25T19:52:58.196Z,11.40
2019-01-25T19:58:53.086Z,10.80
2019-01-25T20:09:44.555Z,8.87
2019-01-25T20:12:13.289Z,7.83
2019-01-25T20:15:01.264Z,9.03
2019-01-25T20:17:49.265Z,7.53
2019-01-25T20:20:38.026Z,8.83
2019-01-25T20:23:46.508Z,7.87
2019-01-25T20:26:34.619Z,6.93
2019-01-25T20:32:10.124Z,6.97
2019-01-25T20:34:58.089Z,8.23
2019-01-25T20:37:46.127Z,7.40
2019-01-25T20:40:54.648Z,7.70
2019-01-25T20:43:42.631Z,6.60
2019-01-25T20:46:31.244Z,6.53
2019-01-25T20:52:15.527Z,7.00
2019-01-25T20:59:54.801Z,6.17
2019-01-25T21:02:42.575Z,6.80
2019-01-25T21:10:59.428Z,5.97
2019-01-25T21:13:47.351Z,4.93
2019-01-25T21:16:55.892Z,5.97
2019-01-25T21:19:24.664Z,6.77
2019-01-25T21:25:00.242Z,6.10
2019-01-25T21:30:44.792Z,5.77
2019-01-25T21:36:20.458Z,5.60
2019-01-25T21:42:16.606Z,6.73
2019-01-25T21:45:04.515Z,5.70
2019-01-25T21:47:52.360Z,5.67
2019-01-25T21:51:00.820Z,7.00
2019-01-25T21:53:48.781Z,6.07
2019-01-25T21:56:36.748Z,5.23
2019-01-25T21:59:24.669Z,5.40
2019-01-25T22:04:46.903Z,5.07
2019-01-25T22:09:50.276Z,4.70
2019-01-25T22:15:51.035Z,4.87
2019-01-25T22:18:58.292Z,5.13
2019-01-25T22:21:46.304Z,5.30
2019-01-25T22:24:34.202Z,5.20
2019-01-25T22:27:22.057Z,4.40
2019-01-25T22:30:10.016Z,4.67
2019-01-25T22:32:57.951Z,4.20
2019-01-25T22:38:20.055Z,6.00
2019-01-25T22:43:42.041Z,6.47
2019-01-25T22:49:45.194Z,5.03
2019-01-25T22:56:00.771Z,4.57
2019-01-25T23:01:56.928Z,5.07
2019-01-25T23:05:04.124Z,4.80
2019-01-25T23:07:32.905Z,5.70
2019-01-25T23:10:20.886Z,5.43
2019-01-25T23:12:49.581Z,6.07
2019-01-25T23:15:18.485Z,4.30
2019-01-25T23:17:47.229Z,6.37
2019-01-25T23:20:15.939Z,5.47
2019-01-25T23:22:44.607Z,4.53
2019-01-25T23:25:13.438Z,5.23
2019-01-25T23:27:42.105Z,4.83
2019-01-25T23:41:21.308Z,6.20
2019-01-25T23:44:09.231Z,6.77
2019-01-25T23:49:31.586Z,6.80
2019-01-25T23:55:07.079Z,6.27
2019-01-25T23:57:55.009Z,5.37
